Time;durP1;ratioP1;P1;durP2;ratioP2;P2;SDS_P1;SDS_P2;PMS_P1;PMS_P2;Temp;Humidity;BMP_temperature;BMP_pressure;BME280_temperature;BME280_humidity;BME280_pressure;Samples;Min_cycle;Max_cycle;Signal;HPM_P1;HPM_P2
2022/06/15 00:00:00;;;;;;;0.3;0.3;;;;;;;17.3;100.0;101660;;;;
2022/06/15 00:01:03;;;;;;;0.3;0.3;;;;;;;17.3;100.0;101660;;;;
2022/06/15 00:02:00;;;;;;;0.3;0.3;;;;;;;17.3;100.0;101660;;;;
2022/06/15 00:03:00;;;;;;;0.3;0.3;;;;;;;17.3;100.0;101660;;;;
2022/06/15 00:04:02;;;;;;;0.3;0.3;;;;;;;17.4;100.0;101660;;;;
2022/06/15 00:05:00;;;;;;;0.3;0.3;;;;;;;17.4;100.0;101660;;;;
2022/06/15 00:06:07;;;;;;;0.3;0.3;;;;;;;17.3;100.0;101660;;;;
2022/06/15 00:07:00;;;;;;;0.3;0.3;;;;;;;17.3;100.0;101660;;;;
2022/06/15 00:08:00;;;;;;;0.3;0.3;;;;;;;17.2;100.0;101660;;;;
2022/06/15 00:09:00;;;;;;;0.3;0.3;;;;;;;17.2;100.0;101660;;;;
2022/06/15 00:10:00;;;;;;;0.3;0.3;;;;;;;17.2;100.0;101650;;;;
2022/06/15 00:11:03;;;;;;;0.3;0.3;;;;;;;17.2;100.0;101650;;;;
2022/06/15 00:12:00;;;;;;;0.3;0.3;;;;;;;17.1;100.0;101650;;;;
2022/06/15 00:13:00;;;;;;;0.3;0.3;;;;;;;17.1;100.0;101650;;;;
2022/06/15 00:14:02;;;;;;;0.3;0.3;;;;;;;17.2;100.0;101650;;;;
2022/06/15 00:15:00;;;;;;;0.3;0.3;;;;;;;17.2;100.0;101650;;;;
2022/06/15 00:16:00;;;;;;;0.3;0.3;;;;;;;17.1;100.0;101650;;;;
2022/06/15 00:17:00;;;;;;;0.3;0.3;;;;;;;17.1;100.0;101650;;;;
2022/06/15 00:18:00;;;;;;;0.3;0.3;;;;;;;17.1;100.0;101650;;;;
2022/06/15 00:19:00;;;;;;;0.3;0.3;;;;;;;17.1;100.0;101650;;;;
2022/06/15 00:20:00;;;;;;;0.3;0.3;;;;;;;17.0;100.0;101650;;;;
2022/06/15 00:21:00;;;;;;;0.3;0.3;;;;;;;17.0;100.0;101650;;;;
2022/06/15 00:22:00;;;;;;;0.3;0.3;;;;;;;17.1;100.0;101650;;;;
2022/06/15 00:23:00;;;;;;;0.3;0.3;;;;;;;17.1;100.0;101650;;;;
2022/06/15 00:24:00;;;;;;;0.3;0.3;;;;;;;17.0;100.0;101650;;;;
2022/06/15 00:25:00;;;;;;;0.3;0.3;;;;;;;17.0;100.0;101650;;;;
2022/06/15 00:26:00;;;;;;;0.3;0.3;;;;;;;17.0;100.0;101650;;;;
2022/06/15 00:27:00;;;;;;;0.3;0.3;;;;;;;17.0;100.0;101650;;;;
2022/06/15 00:28:00;;;;;;;0.3;0.3;;;;;;;17.0;100.0;101650;;;;
2022/06/15 00:29:00;;;;;;;0.3;0.3;;;;;;;17.0;100.0;101650;;;;
2022/06/15 00:30:00;;;;;;;0.3;0.3;;;;;;;17.0;100.0;101650;;;;
2022/06/15 00:31:07;;;;;;;0.3;0.3;;;;;;;17.0;100.0;101650;;;;
2022/06/15 00:32:00;;;;;;;0.3;0.3;;;;;;;16.9;100.0;101650;;;;
2022/06/15 00:33:00;;;;;;;0.3;0.3;;;;;;;16.9;100.0;101650;;;;
2022/06/15 00:34:00;;;;;;;0.3;0.3;;;;;;;16.9;100.0;101650;;;;
2022/06/15 00:35:00;;;;;;;0.3;0.3;;;;;;;16.9;100.0;101650;;;;
2022/06/15 00:36:01;;;;;;;0.3;0.3;;;;;;;16.9;100.0;101640;;;;
2022/06/15 00:37:01;;;;;;;0.3;0.3;;;;;;;16.9;100.0;101640;;;;
2022/06/15 00:38:00;;;;;;;0.3;0.3;;;;;;;16.8;100.0;101640;;;;
2022/06/15 00:39:00;;;;;;;0.3;0.3;;;;;;;16.8;100.0;101640;;;;
2022/06/15 00:40:00;;;;;;;0.3;0.3;;;;;;;16.8;100.0;101640;;;;
2022/06/15 00:41:00;;;;;;;0.3;0.3;;;;;;;16.8;100.0;101640;;;;
2022/06/15 00:42:00;;;;;;;0.3;0.3;;;;;;;16.7;100.0;101640;;;;
2022/06/15 00:43:00;;;;;;;0.3;0.3;;;;;;;16.7;100.0;101640;;;;
2022/06/15 00:44:02;;;;;;;0.3;0.3;;;;;;;16.6;100.0;101630;;;;
2022/06/15 00:45:00;;;;;;;0.3;0.3;;;;;;;16.6;100.0;101630;;;;
2022/06/15 00:46:00;;;;;;;0.3;0.3;;;;;;;16.6;100.0;101630;;;;
2022/06/15 00:47:03;;;;;;;0.3;0.3;;;;;;;16.6;100.0;101630;;;;
2022/06/15 00:48:02;;;;;;;0.3;0.3;;;;;;;16.5;100.0;101640;;;;
2022/06/15 00:49:03;;;;;;;0.3;0.3;;;;;;;16.5;100.0;101640;;;;
2022/06/15 00:50:01;;;;;;;0.3;0.3;;;;;;;16.5;100.0;101630;;;;
2022/06/15 00:51:00;;;;;;;0.3;0.3;;;;;;;16.5;100.0;101630;;;;
2022/06/15 00:52:03;;;;;;;0.3;0.3;;;;;;;16.6;100.0;101640;;;;
2022/06/15 00:53:07;;;;;;;0.3;0.3;;;;;;;16.6;100.0;101640;;;;
2022/06/15 00:54:00;;;;;;;0.4;0.4;;;;;;;16.6;100.0;101630;;;;
2022/06/15 00:55:03;;;;;;;0.4;0.4;;;;;;;16.6;100.0;101630;;;;
2022/06/15 00:56:00;;;;;;;0.4;0.4;;;;;;;16.4;100.0;101640;;;;
2022/06/15 00:57:01;;;;;;;0.4;0.4;;;;;;;16.4;100.0;101640;;;;
2022/06/15 00:58:01;;;;;;;0.4;0.4;;;;;;;16.3;100.0;101640;;;;
2022/06/15 00:59:04;;;;;;;0.4;0.4;;;;;;;16.3;100.0;101640;;;;
2022/06/15 01:00:01;;;;;;;0.4;0.4;;;;;;;16.4;100.0;101630;;;;
2022/06/15 01:01:00;;;;;;;0.4;0.4;;;;;;;16.4;100.0;101630;;;;
2022/06/15 01:02:00;;;;;;;0.4;0.4;;;;;;;16.4;100.0;101630;;;;
2022/06/15 01:03:00;;;;;;;0.4;0.4;;;;;;;16.4;100.0;101630;;;;
2022/06/15 01:04:01;;;;;;;0.4;0.4;;;;;;;16.3;100.0;101630;;;;
2022/06/15 01:05:02;;;;;;;0.4;0.4;;;;;;;16.3;100.0;101630;;;;
2022/06/15 01:06:07;;;;;;;0.4;0.4;;;;;;;16.4;100.0;101630;;;;
2022/06/15 01:07:00;;;;;;;0.4;0.4;;;;;;;16.4;100.0;101630;;;;
2022/06/15 01:08:09;;;;;;;0.4;0.4;;;;;;;16.3;100.0;101630;;;;
2022/06/15 01:09:02;;;;;;;0.4;0.4;;;;;;;16.3;100.0;101630;;;;
2022/06/15 01:10:10;;;;;;;0.4;0.4;;;;;;;16.3;100.0;101630;;;;
2022/06/15 01:11:10;;;;;;;0.4;0.4;;;;;;;16.3;100.0;101630;;;;
2022/06/15 01:12:10;;;;;;;0.4;0.4;;;;;;;16.3;100.0;101630;;;;
2022/06/15 01:13:06;;;;;;;0.4;0.4;;;;;;;16.3;100.0;101630;;;;
2022/06/15 01:14:10;;;;;;;0.3;0.3;;;;;;;16.3;100.0;101630;;;;
2022/06/15 01:15:00;;;;;;;0.3;0.3;;;;;;;16.3;100.0;101630;;;;
2022/06/15 01:16:03;;;;;;;0.3;0.3;;;;;;;16.1;100.0;101630;;;;
2022/06/15 01:17:11;;;;;;;0.3;0.3;;;;;;;16.1;100.0;101630;;;;
2022/06/15 01:18:10;;;;;;;0.3;0.3;;;;;;;16.1;100.0;101630;;;;
2022/06/15 01:19:05;;;;;;;0.3;0.3;;;;;;;16.1;100.0;101630;;;;
2022/06/15 01:20:00;;;;;;;0.3;0.3;;;;;;;16.2;100.0;101630;;;;
2022/06/15 01:21:07;;;;;;;0.3;0.3;;;;;;;16.2;100.0;101630;;;;
2022/06/15 01:22:10;;;;;;;0.3;0.3;;;;;;;16.1;100.0;101630;;;;
2022/06/15 01:23:11;;;;;;;0.3;0.3;;;;;;;16.1;100.0;101630;;;;
2022/06/15 01:24:08;;;;;;;0.3;0.3;;;;;;;15.9;100.0;101630;;;;
2022/06/15 01:25:00;;;;;;;0.3;0.3;;;;;;;15.9;100.0;101630;;;;
2022/06/15 01:26:10;;;;;;;0.3;0.3;;;;;;;16.0;100.0;101630;;;;
2022/06/15 01:27:01;;;;;;;0.3;0.3;;;;;;;16.0;100.0;101630;;;;
2022/06/15 01:28:10;;;;;;;0.3;0.3;;;;;;;15.9;100.0;101630;;;;
2022/06/15 01:29:01;;;;;;;0.3;0.3;;;;;;;15.9;100.0;101630;;;;
2022/06/15 01:30:07;;;;;;;0.3;0.3;;;;;;;15.9;100.0;101630;;;;
2022/06/15 01:31:10;;;;;;;0.3;0.3;;;;;;;15.9;100.0;101630;;;;
2022/06/15 01:32:10;;;;;;;0.3;0.3;;;;;;;16.0;100.0;101630;;;;
2022/06/15 01:33:05;;;;;;;0.3;0.3;;;;;;;16.0;100.0;101630;;;;
2022/06/15 01:34:03;;;;;;;0.4;0.4;;;;;;;15.9;100.0;101620;;;;
2022/06/15 01:35:03;;;;;;;0.4;0.4;;;;;;;15.9;100.0;101620;;;;
2022/06/15 01:36:04;;;;;;;0.4;0.4;;;;;;;15.7;100.0;101620;;;;
2022/06/15 01:37:06;;;;;;;0.4;0.4;;;;;;;15.7;100.0;101620;;;;
2022/06/15 01:38:19;;;;;;;0.4;0.4;;;;;;;15.6;100.0;101630;;;;
2022/06/15 01:39:00;;;;;;;0.4;0.4;;;;;;;15.6;100.0;101630;;;;
2022/06/15 01:40:10;;;;;;;0.4;0.4;;;;;;;15.8;100.0;101620;;;;
2022/06/15 01:41:07;;;;;;;0.4;0.4;;;;;;;15.8;100.0;101620;;;;
2022/06/15 01:42:00;;;;;;;0.4;0.4;;;;;;;15.7;100.0;101620;;;;
2022/06/15 01:43:04;;;;;;;0.4;0.4;;;;;;;15.7;100.0;101620;;;;
2022/06/15 01:44:06;;;;;;;0.4;0.4;;;;;;;15.7;100.0;101620;;;;
2022/06/15 01:45:04;;;;;;;0.4;0.4;;;;;;;15.7;100.0;101620;;;;
2022/06/15 01:46:01;;;;;;;0.4;0.4;;;;;;;15.4;100.0;101620;;;;
2022/06/15 01:47:01;;;;;;;0.4;0.4;;;;;;;15.4;100.0;101620;;;;
2022/06/15 01:48:02;;;;;;;0.4;0.4;;;;;;;15.3;100.0;101620;;;;
2022/06/15 01:49:00;;;;;;;0.4;0.4;;;;;;;15.3;100.0;101620;;;;
2022/06/15 01:50:10;;;;;;;0.4;0.4;;;;;;;15.2;100.0;101620;;;;
2022/06/15 01:51:04;;;;;;;0.4;0.4;;;;;;;15.2;100.0;101620;;;;
2022/06/15 01:52:01;;;;;;;0.4;0.4;;;;;;;15.2;100.0;101620;;;;
2022/06/15 01:53:00;;;;;;;0.4;0.4;;;;;;;15.2;100.0;101620;;;;
2022/06/15 01:54:04;;;;;;;0.4;0.4;;;;;;;15.2;100.0;101620;;;;
2022/06/15 01:55:05;;;;;;;0.4;0.4;;;;;;;15.2;100.0;101620;;;;
2022/06/15 01:56:03;;;;;;;0.4;0.4;;;;;;;15.1;100.0;101620;;;;
2022/06/15 01:57:02;;;;;;;0.4;0.4;;;;;;;15.1;100.0;101620;;;;
2022/06/15 01:58:04;;;;;;;0.4;0.4;;;;;;;15.1;100.0;101610;;;;
2022/06/15 01:59:06;;;;;;;0.4;0.4;;;;;;;15.1;100.0;101610;;;;
2022/06/15 02:00:04;;;;;;;0.4;0.4;;;;;;;15.1;100.0;101620;;;;
2022/06/15 02:01:07;;;;;;;0.4;0.4;;;;;;;15.1;100.0;101620;;;;
2022/06/15 02:02:04;;;;;;;0.4;0.4;;;;;;;15.0;100.0;101620;;;;
2022/06/15 02:03:01;;;;;;;0.4;0.4;;;;;;;15.0;100.0;101620;;;;
2022/06/15 02:04:08;;;;;;;0.4;0.4;;;;;;;15.2;100.0;101610;;;;
2022/06/15 02:05:07;;;;;;;0.4;0.4;;;;;;;15.2;100.0;101610;;;;
2022/06/15 02:06:01;;;;;;;0.4;0.4;;;;;;;15.2;100.0;101610;;;;
2022/06/15 02:07:01;;;;;;;0.4;0.4;;;;;;;15.2;100.0;101610;;;;
2022/06/15 02:08:07;;;;;;;0.4;0.4;;;;;;;15.1;100.0;101610;;;;
2022/06/15 02:09:05;;;;;;;0.4;0.4;;;;;;;15.1;100.0;101610;;;;
2022/06/15 02:10:03;;;;;;;0.4;0.4;;;;;;;15.1;100.0;101610;;;;
2022/06/15 02:11:05;;;;;;;0.4;0.4;;;;;;;15.1;100.0;101610;;;;
2022/06/15 02:12:02;;;;;;;0.4;0.4;;;;;;;14.9;100.0;101610;;;;
2022/06/15 02:13:03;;;;;;;0.4;0.4;;;;;;;14.9;100.0;101610;;;;
2022/06/15 02:14:10;;;;;;;0.5;0.5;;;;;;;15.0;100.0;101610;;;;
2022/06/15 02:15:02;;;;;;;0.5;0.5;;;;;;;15.0;100.0;101610;;;;
2022/06/15 02:16:03;;;;;;;0.5;0.5;;;;;;;14.7;100.0;101600;;;;
2022/06/15 02:17:05;;;;;;;0.5;0.5;;;;;;;14.7;100.0;101600;;;;
2022/06/15 02:18:02;;;;;;;0.5;0.5;;;;;;;14.6;100.0;101610;;;;
2022/06/15 02:19:02;;;;;;;0.5;0.5;;;;;;;14.6;100.0;101610;;;;
2022/06/15 02:20:03;;;;;;;0.5;0.5;;;;;;;14.6;100.0;101600;;;;
2022/06/15 02:21:02;;;;;;;0.5;0.5;;;;;;;14.6;100.0;101600;;;;
2022/06/15 02:22:02;;;;;;;0.5;0.5;;;;;;;14.9;100.0;101600;;;;
2022/06/15 02:23:01;;;;;;;0.5;0.5;;;;;;;14.9;100.0;101600;;;;
2022/06/15 02:24:00;;;;;;;0.5;0.5;;;;;;;14.7;100.0;101600;;;;
2022/06/15 02:25:03;;;;;;;0.5;0.5;;;;;;;14.7;100.0;101600;;;;
2022/06/15 02:26:01;;;;;;;0.5;0.5;;;;;;;14.7;100.0;101600;;;;
2022/06/15 02:27:01;;;;;;;0.5;0.5;;;;;;;14.7;100.0;101600;;;;
2022/06/15 02:28:00;;;;;;;0.5;0.5;;;;;;;14.6;100.0;101590;;;;
2022/06/15 02:29:02;;;;;;;0.5;0.5;;;;;;;14.6;100.0;101590;;;;
2022/06/15 02:30:02;;;;;;;0.5;0.5;;;;;;;14.4;100.0;101590;;;;
2022/06/15 02:31:00;;;;;;;0.5;0.5;;;;;;;14.4;100.0;101590;;;;
2022/06/15 02:32:00;;;;;;;0.5;0.5;;;;;;;14.6;100.0;101600;;;;
2022/06/15 02:33:08;;;;;;;0.6;0.6;;;;;;;14.6;100.0;101600;;;;
2022/06/15 02:34:01;;;;;;;0.6;0.6;;;;;;;14.6;100.0;101590;;;;
2022/06/15 02:35:00;;;;;;;0.6;0.6;;;;;;;14.6;100.0;101590;;;;
2022/06/15 02:36:00;;;;;;;0.6;0.6;;;;;;;14.6;100.0;101590;;;;
2022/06/15 02:37:00;;;;;;;0.6;0.6;;;;;;;14.6;100.0;101590;;;;
2022/06/15 02:38:00;;;;;;;0.6;0.6;;;;;;;14.7;100.0;101590;;;;
2022/06/15 02:39:01;;;;;;;0.6;0.6;;;;;;;14.7;100.0;101590;;;;
2022/06/15 02:40:00;;;;;;;0.6;0.6;;;;;;;14.6;100.0;101590;;;;
2022/06/15 02:41:00;;;;;;;0.6;0.6;;;;;;;14.6;100.0;101590;;;;
2022/06/15 02:42:01;;;;;;;0.6;0.6;;;;;;;14.6;100.0;101590;;;;
2022/06/15 02:43:01;;;;;;;0.6;0.6;;;;;;;14.6;100.0;101590;;;;
2022/06/15 02:44:02;;;;;;;0.6;0.6;;;;;;;14.5;100.0;101590;;;;
2022/06/15 02:45:03;;;;;;;0.6;0.6;;;;;;;14.5;100.0;101590;;;;
2022/06/15 02:46:07;;;;;;;0.6;0.6;;;;;;;14.5;100.0;101600;;;;
2022/06/15 02:47:00;;;;;;;0.6;0.6;;;;;;;14.5;100.0;101600;;;;
2022/06/15 02:48:01;;;;;;;0.6;0.6;;;;;;;14.6;100.0;101590;;;;
2022/06/15 02:49:00;;;;;;;0.6;0.6;;;;;;;14.6;100.0;101590;;;;
2022/06/15 02:50:00;;;;;;;0.6;0.6;;;;;;;14.5;100.0;101590;;;;
2022/06/15 02:51:10;;;;;;;0.6;0.6;;;;;;;14.5;100.0;101590;;;;
2022/06/15 02:52:04;;;;;;;0.6;0.6;;;;;;;14.4;100.0;101590;;;;
2022/06/15 02:53:10;;;;;;;0.5;0.5;;;;;;;14.4;100.0;101590;;;;
2022/06/15 02:54:02;;;;;;;0.5;0.5;;;;;;;14.3;100.0;101590;;;;
2022/06/15 02:55:00;;;;;;;0.5;0.5;;;;;;;14.3;100.0;101590;;;;
2022/06/15 02:56:01;;;;;;;0.5;0.5;;;;;;;14.5;100.0;101590;;;;
2022/06/15 02:57:00;;;;;;;0.5;0.5;;;;;;;14.5;100.0;101590;;;;
2022/06/15 02:58:03;;;;;;;0.5;0.5;;;;;;;14.4;100.0;101590;;;;
2022/06/15 02:59:00;;;;;;;0.5;0.5;;;;;;;14.4;100.0;101590;;;;
2022/06/15 03:00:00;;;;;;;0.5;0.5;;;;;;;14.3;100.0;101580;;;;
2022/06/15 03:01:00;;;;;;;0.5;0.5;;;;;;;14.3;100.0;101580;;;;
2022/06/15 03:02:00;;;;;;;0.5;0.5;;;;;;;14.2;100.0;101580;;;;
2022/06/15 03:03:00;;;;;;;0.5;0.5;;;;;;;14.2;100.0;101580;;;;
2022/06/15 03:04:00;;;;;;;0.5;0.5;;;;;;;14.1;100.0;101580;;;;
2022/06/15 03:05:00;;;;;;;0.5;0.5;;;;;;;14.1;100.0;101580;;;;
2022/06/15 03:06:00;;;;;;;0.5;0.5;;;;;;;14.1;100.0;101580;;;;
2022/06/15 03:07:00;;;;;;;0.5;0.5;;;;;;;14.1;100.0;101580;;;;
2022/06/15 03:08:00;;;;;;;0.5;0.5;;;;;;;14.1;100.0;101570;;;;
2022/06/15 03:09:00;;;;;;;0.5;0.5;;;;;;;14.1;100.0;101570;;;;
2022/06/15 03:10:00;;;;;;;0.5;0.5;;;;;;;14.1;100.0;101580;;;;
2022/06/15 03:11:00;;;;;;;0.5;0.5;;;;;;;14.1;100.0;101580;;;;
2022/06/15 03:12:00;;;;;;;0.5;0.5;;;;;;;14.1;100.0;101580;;;;
2022/06/15 03:13:00;;;;;;;0.5;0.5;;;;;;;14.1;100.0;101580;;;;
2022/06/15 03:14:00;;;;;;;0.5;0.5;;;;;;;14.1;100.0;101580;;;;
2022/06/15 03:15:00;;;;;;;0.5;0.5;;;;;;;14.1;100.0;101580;;;;
2022/06/15 03:16:01;;;;;;;0.5;0.5;;;;;;;14.1;100.0;101580;;;;
2022/06/15 03:17:00;;;;;;;0.5;0.5;;;;;;;14.1;100.0;101580;;;;
2022/06/15 03:18:00;;;;;;;0.5;0.5;;;;;;;14.2;100.0;101580;;;;
2022/06/15 03:19:00;;;;;;;0.5;0.5;;;;;;;14.2;100.0;101580;;;;
2022/06/15 03:20:00;;;;;;;0.5;0.5;;;;;;;14.1;100.0;101580;;;;
2022/06/15 03:21:01;;;;;;;0.5;0.5;;;;;;;14.1;100.0;101580;;;;
2022/06/15 03:22:00;;;;;;;0.5;0.5;;;;;;;14.0;100.0;101580;;;;
2022/06/15 03:23:00;;;;;;;0.5;0.5;;;;;;;14.0;100.0;101580;;;;
2022/06/15 03:24:00;;;;;;;0.5;0.5;;;;;;;13.9;100.0;101580;;;;
2022/06/15 03:25:00;;;;;;;0.5;0.5;;;;;;;13.9;100.0;101580;;;;
2022/06/15 03:26:01;;;;;;;0.5;0.5;;;;;;;14.0;100.0;101580;;;;
2022/06/15 03:27:00;;;;;;;0.5;0.5;;;;;;;14.0;100.0;101580;;;;
2022/06/15 03:28:00;;;;;;;0.5;0.5;;;;;;;13.9;100.0;101580;;;;
2022/06/15 03:29:00;;;;;;;0.5;0.5;;;;;;;13.9;100.0;101580;;;;
2022/06/15 03:30:00;;;;;;;0.5;0.5;;;;;;;13.9;100.0;101580;;;;
2022/06/15 03:31:00;;;;;;;0.5;0.5;;;;;;;13.9;100.0;101580;;;;
2022/06/15 03:32:00;;;;;;;0.5;0.5;;;;;;;13.9;100.0;101580;;;;
2022/06/15 03:33:07;;;;;;;0.7;0.7;;;;;;;13.9;100.0;101580;;;;
2022/06/15 03:34:00;;;;;;;0.7;0.7;;;;;;;14.1;100.0;101580;;;;
2022/06/15 03:35:00;;;;;;;0.7;0.7;;;;;;;14.1;100.0;101580;;;;
2022/06/15 03:36:00;;;;;;;0.7;0.7;;;;;;;13.9;100.0;101580;;;;
2022/06/15 03:37:00;;;;;;;0.7;0.7;;;;;;;13.9;100.0;101580;;;;
2022/06/15 03:38:01;;;;;;;0.7;0.7;;;;;;;13.8;100.0;101580;;;;
2022/06/15 03:39:00;;;;;;;0.7;0.7;;;;;;;13.8;100.0;101580;;;;
2022/06/15 03:40:00;;;;;;;0.7;0.7;;;;;;;13.9;100.0;101580;;;;
2022/06/15 03:41:00;;;;;;;0.7;0.7;;;;;;;13.9;100.0;101580;;;;
2022/06/15 03:42:10;;;;;;;0.7;0.7;;;;;;;14.0;100.0;101580;;;;
2022/06/15 03:43:00;;;;;;;0.7;0.7;;;;;;;14.0;100.0;101580;;;;
2022/06/15 03:44:00;;;;;;;0.7;0.7;;;;;;;13.9;100.0;101580;;;;
2022/06/15 03:45:00;;;;;;;0.7;0.7;;;;;;;13.9;100.0;101580;;;;
2022/06/15 03:46:00;;;;;;;0.7;0.7;;;;;;;13.8;100.0;101580;;;;
2022/06/15 03:47:00;;;;;;;0.7;0.7;;;;;;;13.8;100.0;101580;;;;
2022/06/15 03:48:00;;;;;;;0.7;0.7;;;;;;;13.9;100.0;101590;;;;
2022/06/15 03:49:00;;;;;;;0.7;0.7;;;;;;;13.9;100.0;101590;;;;
2022/06/15 03:50:00;;;;;;;0.7;0.7;;;;;;;13.9;100.0;101590;;;;
2022/06/15 03:51:00;;;;;;;0.7;0.7;;;;;;;13.9;100.0;101590;;;;
2022/06/15 03:52:00;;;;;;;0.7;0.7;;;;;;;13.7;100.0;101590;;;;
2022/06/15 03:53:00;;;;;;;0.5;0.5;;;;;;;13.7;100.0;101590;;;;
2022/06/15 03:54:00;;;;;;;0.5;0.5;;;;;;;13.8;100.0;101590;;;;
2022/06/15 03:55:00;;;;;;;0.5;0.5;;;;;;;13.8;100.0;101590;;;;
2022/06/15 03:56:00;;;;;;;0.5;0.5;;;;;;;13.8;100.0;101590;;;;
2022/06/15 03:57:00;;;;;;;0.5;0.5;;;;;;;13.8;100.0;101590;;;;
2022/06/15 03:58:00;;;;;;;0.5;0.5;;;;;;;13.7;100.0;101590;;;;
2022/06/15 03:59:00;;;;;;;0.5;0.5;;;;;;;13.7;100.0;101590;;;;
2022/06/15 04:00:00;;;;;;;0.5;0.5;;;;;;;13.8;100.0;101590;;;;
2022/06/15 04:01:00;;;;;;;0.5;0.5;;;;;;;13.8;100.0;101590;;;;
2022/06/15 04:02:00;;;;;;;0.5;0.5;;;;;;;13.9;100.0;101590;;;;
2022/06/15 04:03:00;;;;;;;0.5;0.5;;;;;;;13.9;100.0;101590;;;;
2022/06/15 04:04:00;;;;;;;0.5;0.5;;;;;;;13.8;100.0;101590;;;;
2022/06/15 04:05:00;;;;;;;0.5;0.5;;;;;;;13.8;100.0;101590;;;;
2022/06/15 04:06:00;;;;;;;0.5;0.5;;;;;;;13.7;100.0;101590;;;;
2022/06/15 04:07:00;;;;;;;0.5;0.5;;;;;;;13.7;100.0;101590;;;;
2022/06/15 04:09:00;;;;;;;0.5;0.5;;;;;;;13.7;100.0;101590;;;;
2022/06/15 04:10:07;;;;;;;0.5;0.5;;;;;;;13.6;100.0;101590;;;;
2022/06/15 04:11:00;;;;;;;0.5;0.5;;;;;;;13.6;100.0;101590;;;;
2022/06/15 04:12:02;;;;;;;0.5;0.5;;;;;;;13.7;100.0;101590;;;;
2022/06/15 04:13:00;;;;;;;0.5;0.5;;;;;;;13.7;100.0;101590;;;;
2022/06/15 04:14:00;;;;;;;0.5;0.5;;;;;;;13.7;100.0;101590;;;;
2022/06/15 04:15:00;;;;;;;0.5;0.5;;;;;;;13.7;100.0;101590;;;;
2022/06/15 04:16:01;;;;;;;0.5;0.5;;;;;;;13.7;100.0;101590;;;;
2022/06/15 04:17:00;;;;;;;0.5;0.5;;;;;;;13.7;100.0;101590;;;;
2022/06/15 04:18:00;;;;;;;0.5;0.5;;;;;;;13.6;100.0;101590;;;;
2022/06/15 04:19:02;;;;;;;0.5;0.5;;;;;;;13.6;100.0;101590;;;;
2022/06/15 04:21:00;;;;;;;0.5;0.5;;;;;;;13.9;100.0;101590;;;;
2022/06/15 04:22:00;;;;;;;0.5;0.5;;;;;;;13.9;100.0;101590;;;;
2022/06/15 04:23:01;;;;;;;0.5;0.5;;;;;;;13.9;100.0;101590;;;;
2022/06/15 04:24:00;;;;;;;0.5;0.5;;;;;;;13.9;100.0;101590;;;;
2022/06/15 04:25:00;;;;;;;0.5;0.5;;;;;;;13.9;100.0;101590;;;;
2022/06/15 04:26:02;;;;;;;0.5;0.5;;;;;;;14.0;100.0;101590;;;;
2022/06/15 04:27:00;;;;;;;0.5;0.5;;;;;;;14.0;100.0;101590;;;;
2022/06/15 04:28:00;;;;;;;0.5;0.5;;;;;;;14.0;100.0;101590;;;;
2022/06/15 04:29:00;;;;;;;0.5;0.5;;;;;;;14.0;100.0;101590;;;;
2022/06/15 04:30:00;;;;;;;0.5;0.5;;;;;;;14.0;100.0;101590;;;;
2022/06/15 04:31:00;;;;;;;0.5;0.5;;;;;;;14.0;100.0;101590;;;;
2022/06/15 04:32:00;;;;;;;0.5;0.5;;;;;;;13.9;100.0;101590;;;;
2022/06/15 04:33:00;;;;;;;0.9;0.9;;;;;;;13.9;100.0;101590;;;;
2022/06/15 04:34:00;;;;;;;0.9;0.9;;;;;;;14.0;100.0;101590;;;;
2022/06/15 04:35:00;;;;;;;0.9;0.9;;;;;;;14.0;100.0;101590;;;;
2022/06/15 04:36:00;;;;;;;0.9;0.9;;;;;;;13.9;100.0;101590;;;;
2022/06/15 04:37:00;;;;;;;0.9;0.9;;;;;;;13.9;100.0;101590;;;;
2022/06/15 04:38:00;;;;;;;0.9;0.9;;;;;;;13.9;100.0;101590;;;;
2022/06/15 04:39:00;;;;;;;0.9;0.9;;;;;;;13.9;100.0;101590;;;;
2022/06/15 04:40:00;;;;;;;0.9;0.9;;;;;;;14.0;100.0;101590;;;;
2022/06/15 04:41:02;;;;;;;0.9;0.9;;;;;;;14.0;100.0;101590;;;;
2022/06/15 04:42:00;;;;;;;0.9;0.9;;;;;;;14.1;100.0;101580;;;;
2022/06/15 04:43:00;;;;;;;0.9;0.9;;;;;;;14.1;100.0;101580;;;;
2022/06/15 04:44:00;;;;;;;0.9;0.9;;;;;;;13.9;100.0;101580;;;;
2022/06/15 04:45:00;;;;;;;0.9;0.9;;;;;;;13.9;100.0;101580;;;;
2022/06/15 04:46:00;;;;;;;0.9;0.9;;;;;;;13.9;100.0;101580;;;;
2022/06/15 04:47:01;;;;;;;0.9;0.9;;;;;;;13.9;100.0;101580;;;;
2022/06/15 04:48:00;;;;;;;0.9;0.9;;;;;;;14.0;100.0;101590;;;;
2022/06/15 04:49:00;;;;;;;0.9;0.9;;;;;;;14.0;100.0;101590;;;;
2022/06/15 04:50:00;;;;;;;0.9;0.9;;;;;;;14.0;100.0;101590;;;;
2022/06/15 04:51:10;;;;;;;0.9;0.9;;;;;;;14.0;100.0;101590;;;;
2022/06/15 04:52:00;;;;;;;0.9;0.9;;;;;;;14.1;100.0;101590;;;;
2022/06/15 04:53:00;;;;;;;0.7;0.7;;;;;;;14.1;100.0;101590;;;;
2022/06/15 04:54:00;;;;;;;0.7;0.7;;;;;;;14.0;100.0;101590;;;;
2022/06/15 04:55:00;;;;;;;0.7;0.7;;;;;;;14.0;100.0;101590;;;;
2022/06/15 04:56:00;;;;;;;0.7;0.7;;;;;;;14.1;100.0;101590;;;;
2022/06/15 04:57:00;;;;;;;0.7;0.7;;;;;;;14.1;100.0;101590;;;;
2022/06/15 04:58:00;;;;;;;0.7;0.7;;;;;;;14.2;100.0;101590;;;;
2022/06/15 04:59:00;;;;;;;0.7;0.7;;;;;;;14.2;100.0;101590;;;;
2022/06/15 05:00:00;;;;;;;0.7;0.7;;;;;;;14.2;100.0;101590;;;;
2022/06/15 05:01:00;;;;;;;0.7;0.7;;;;;;;14.2;100.0;101590;;;;
2022/06/15 05:02:00;;;;;;;0.7;0.7;;;;;;;14.2;100.0;101600;;;;
2022/06/15 05:03:01;;;;;;;0.7;0.7;;;;;;;14.2;100.0;101600;;;;
2022/06/15 05:04:00;;;;;;;0.7;0.7;;;;;;;14.3;100.0;101600;;;;
2022/06/15 05:05:00;;;;;;;0.7;0.7;;;;;;;14.3;100.0;101600;;;;
2022/06/15 05:06:00;;;;;;;0.7;0.7;;;;;;;14.4;100.0;101600;;;;
2022/06/15 05:07:00;;;;;;;0.7;0.7;;;;;;;14.4;100.0;101600;;;;
2022/06/15 05:08:00;;;;;;;0.7;0.7;;;;;;;14.4;100.0;101600;;;;
2022/06/15 05:09:00;;;;;;;0.7;0.7;;;;;;;14.4;100.0;101600;;;;
2022/06/15 05:10:00;;;;;;;0.7;0.7;;;;;;;14.6;100.0;101600;;;;
2022/06/15 05:11:00;;;;;;;0.7;0.7;;;;;;;14.6;100.0;101600;;;;
2022/06/15 05:12:00;;;;;;;0.7;0.7;;;;;;;14.6;100.0;101600;;;;
2022/06/15 05:13:00;;;;;;;0.3;0.3;;;;;;;14.6;100.0;101600;;;;
2022/06/15 05:14:00;;;;;;;0.3;0.3;;;;;;;14.5;100.0;101600;;;;
2022/06/15 05:15:05;;;;;;;0.3;0.3;;;;;;;14.5;100.0;101600;;;;
2022/06/15 05:16:00;;;;;;;0.3;0.3;;;;;;;14.6;100.0;101600;;;;
2022/06/15 05:17:00;;;;;;;0.3;0.3;;;;;;;14.6;100.0;101600;;;;
2022/06/15 05:18:02;;;;;;;0.3;0.3;;;;;;;14.7;100.0;101600;;;;
2022/06/15 05:19:01;;;;;;;0.3;0.3;;;;;;;14.7;100.0;101600;;;;
2022/06/15 05:20:00;;;;;;;0.3;0.3;;;;;;;14.7;100.0;101600;;;;
2022/06/15 05:21:00;;;;;;;0.3;0.3;;;;;;;14.7;100.0;101600;;;;
2022/06/15 05:22:00;;;;;;;0.3;0.3;;;;;;;14.8;100.0;101600;;;;
2022/06/15 05:23:00;;;;;;;0.3;0.3;;;;;;;14.8;100.0;101600;;;;
2022/06/15 05:24:00;;;;;;;0.3;0.3;;;;;;;14.9;100.0;101600;;;;
2022/06/15 05:25:00;;;;;;;0.3;0.3;;;;;;;14.9;100.0;101600;;;;
2022/06/15 05:26:00;;;;;;;0.3;0.3;;;;;;;14.9;100.0;101600;;;;
2022/06/15 05:27:00;;;;;;;0.3;0.3;;;;;;;14.9;100.0;101600;;;;
2022/06/15 05:28:01;;;;;;;0.3;0.3;;;;;;;14.9;100.0;101600;;;;
2022/06/15 05:29:00;;;;;;;0.3;0.3;;;;;;;14.9;100.0;101600;;;;
2022/06/15 05:30:00;;;;;;;0.3;0.3;;;;;;;14.9;100.0;101600;;;;
2022/06/15 05:31:02;;;;;;;0.3;0.3;;;;;;;14.9;100.0;101600;;;;
2022/06/15 05:32:01;;;;;;;0.3;0.3;;;;;;;15.1;100.0;101600;;;;
2022/06/15 05:33:00;;;;;;;0.5;0.5;;;;;;;15.1;100.0;101600;;;;
2022/06/15 05:34:00;;;;;;;0.5;0.5;;;;;;;15.0;100.0;101600;;;;
2022/06/15 05:35:02;;;;;;;0.5;0.5;;;;;;;15.0;100.0;101600;;;;
2022/06/15 05:36:01;;;;;;;0.5;0.5;;;;;;;15.2;100.0;101600;;;;
2022/06/15 05:37:00;;;;;;;0.5;0.5;;;;;;;15.2;100.0;101600;;;;
2022/06/15 05:38:00;;;;;;;0.5;0.5;;;;;;;15.3;100.0;101600;;;;
2022/06/15 05:39:01;;;;;;;0.5;0.5;;;;;;;15.3;100.0;101600;;;;
2022/06/15 05:40:00;;;;;;;0.5;0.5;;;;;;;15.3;100.0;101590;;;;
2022/06/15 05:41:00;;;;;;;0.5;0.5;;;;;;;15.3;100.0;101590;;;;
2022/06/15 05:42:00;;;;;;;0.5;0.5;;;;;;;15.3;100.0;101600;;;;
2022/06/15 05:43:00;;;;;;;0.5;0.5;;;;;;;15.3;100.0;101600;;;;
2022/06/15 05:44:01;;;;;;;0.5;0.5;;;;;;;15.4;100.0;101600;;;;
2022/06/15 05:45:01;;;;;;;0.5;0.5;;;;;;;15.4;100.0;101600;;;;
2022/06/15 05:46:10;;;;;;;0.5;0.5;;;;;;;15.6;100.0;101600;;;;
2022/06/15 05:47:00;;;;;;;0.5;0.5;;;;;;;15.6;100.0;101600;;;;
2022/06/15 05:48:00;;;;;;;0.5;0.5;;;;;;;15.7;100.0;101600;;;;
2022/06/15 05:49:02;;;;;;;0.5;0.5;;;;;;;15.7;100.0;101600;;;;
2022/06/15 05:50:00;;;;;;;0.5;0.5;;;;;;;15.7;100.0;101600;;;;
2022/06/15 05:51:00;;;;;;;0.5;0.5;;;;;;;15.7;100.0;101600;;;;
2022/06/15 05:52:01;;;;;;;0.5;0.5;;;;;;;15.8;100.0;101600;;;;
2022/06/15 05:53:00;;;;;;;0.4;0.4;;;;;;;15.8;100.0;101600;;;;
2022/06/15 05:54:00;;;;;;;0.4;0.4;;;;;;;15.9;100.0;101600;;;;
2022/06/15 05:55:01;;;;;;;0.4;0.4;;;;;;;15.9;100.0;101600;;;;
2022/06/15 05:56:00;;;;;;;0.4;0.4;;;;;;;16.0;100.0;101600;;;;
2022/06/15 05:57:00;;;;;;;0.4;0.4;;;;;;;16.0;100.0;101600;;;;
2022/06/15 05:58:00;;;;;;;0.4;0.4;;;;;;;16.1;100.0;101600;;;;
2022/06/15 05:59:00;;;;;;;0.4;0.4;;;;;;;16.1;100.0;101600;;;;
2022/06/15 06:00:03;;;;;;;0.4;0.4;;;;;;;16.2;100.0;101600;;;;
2022/06/15 06:01:10;;;;;;;0.4;0.4;;;;;;;16.2;100.0;101600;;;;
2022/06/15 06:02:00;;;;;;;0.4;0.4;;;;;;;16.3;100.0;101600;;;;
2022/06/15 06:03:00;;;;;;;0.4;0.4;;;;;;;16.3;100.0;101600;;;;
2022/06/15 06:04:01;;;;;;;0.4;0.4;;;;;;;16.5;100.0;101600;;;;
2022/06/15 06:05:00;;;;;;;0.4;0.4;;;;;;;16.5;100.0;101600;;;;
2022/06/15 06:06:00;;;;;;;0.4;0.4;;;;;;;16.5;100.0;101600;;;;
2022/06/15 06:07:00;;;;;;;0.4;0.4;;;;;;;16.5;100.0;101600;;;;
2022/06/15 06:08:00;;;;;;;0.4;0.4;;;;;;;16.8;100.0;101600;;;;
2022/06/15 06:09:00;;;;;;;0.4;0.4;;;;;;;16.8;100.0;101600;;;;
2022/06/15 06:10:00;;;;;;;0.4;0.4;;;;;;;16.9;100.0;101600;;;;
2022/06/15 06:11:00;;;;;;;0.4;0.4;;;;;;;16.9;100.0;101600;;;;
2022/06/15 06:12:00;;;;;;;0.4;0.4;;;;;;;16.9;100.0;101600;;;;
2022/06/15 06:13:00;;;;;;;0.3;0.3;;;;;;;16.9;100.0;101600;;;;
2022/06/15 06:14:00;;;;;;;0.3;0.3;;;;;;;16.9;100.0;101600;;;;
2022/06/15 06:15:00;;;;;;;0.3;0.3;;;;;;;16.9;100.0;101600;;;;
2022/06/15 06:16:00;;;;;;;0.3;0.3;;;;;;;17.0;100.0;101600;;;;
2022/06/15 06:17:00;;;;;;;0.3;0.3;;;;;;;17.0;100.0;101600;;;;
2022/06/15 06:18:02;;;;;;;0.3;0.3;;;;;;;17.2;100.0;101600;;;;
2022/06/15 06:19:00;;;;;;;0.3;0.3;;;;;;;17.2;100.0;101600;;;;
2022/06/15 06:20:00;;;;;;;0.3;0.3;;;;;;;17.2;100.0;101600;;;;
2022/06/15 06:21:00;;;;;;;0.3;0.3;;;;;;;17.2;100.0;101600;;;;
2022/06/15 06:22:00;;;;;;;0.3;0.3;;;;;;;17.2;100.0;101590;;;;
2022/06/15 06:23:00;;;;;;;0.3;0.3;;;;;;;17.2;100.0;101590;;;;
2022/06/15 06:24:00;;;;;;;0.3;0.3;;;;;;;17.4;100.0;101600;;;;